Flight Track Log - Related Links

Times and Time Zones

All times are in EDT time to prevent confusion due to time zone crossing. See the AWE557 flight status page for this flight to view local times or setup timezone preferences in your user account.

Time Position Orientation Groundspeed Altitude Reporting Facility
EDT Latitude Longitude Course Direction KTS MPH feet Rate Location/Type
Wed 09:41:26 AM 32.8833 -97.0333 62° Northeast 157 181 1,300  Level Dallas / Fort Worth TRACON
Wed 09:42:26 AM 32.8333 -97.0167 164° South 204 235 3,400 2,447 Climbing Dallas / Fort Worth TRACON
Wed 09:43:09 AM 32.8022 -97.0044 162° South 216 249 5,500 2,457 Climbing Fort Worth Center
Wed 09:44:00 AM 32.8085 -96.7051 66° East  Level FlightAware Approximate
Wed 09:44:11 AM 32.7744 -96.9353 116° Southeast 277 319 7,700  Level Fort Worth Center
Wed 09:45:00 AM 32.8580 -96.5698 67° East  Level FlightAware Approximate
Wed 09:46:00 AM 32.9120 -96.4371 62° Northeast  Level FlightAware Approximate
Wed 09:46:15 AM 32.8419 -96.7331 68° East 325 374 14,300  Level Fort Worth Center
Wed 09:47:17 AM 32.8756 -96.6286 69° East 337 388 16,900 2,352 Climbing Fort Worth Center
Wed 09:48:20 AM 32.9136 -96.5092 69° East 361 415 19,200 2,105 Climbing Fort Worth Center
Wed 09:50:08 AM 32.9731 -96.3139 70° East 376 433 22,900 1,903 Climbing Memphis Center
Wed 09:51:26 AM 32.9964 -96.1433 81° East 402 463 25,100 1,710 Climbing Fort Worth Center
Wed 09:53:14 AM 33.0342 -95.8753 80° East 424 488 28,200 1,588 Climbing Memphis Center
Wed 09:54:16 AM 33.0528 -95.7283 81° East 441 507 29,600 1,645 Climbing Memphis Center
Wed 09:55:18 AM 33.0733 -95.5814 80° East 451 519 31,600 1,632 Climbing Memphis Center
Wed 09:56:21 AM 33.1092 -95.4411 73° East 446 513 33,000 1,488 Climbing Memphis Center
Wed 09:57:23 AM 33.1539 -95.3056 68° East 444 511 34,700 1,500 Climbing Memphis Center
Wed 09:58:25 AM 33.2028 -95.1422 70° East 439 505 36,100 1,161 Climbing Memphis Center
Wed 09:59:27 AM 33.2422 -95.0061 71° East 438 504 37,100 986 Climbing Memphis Center
Wed 10:00:45 AM 33.2894 -94.8450 71° East 434 499 38,400 643 Climbing Fort Worth Center
Wed 10:01:47 AM 33.3300 -94.7103 70° East 433 498 38,600 212 Climbing Fort Worth Center
Wed 10:03:35 AM 33.4031 -94.4575 71° East 440 506 39,000 129 Climbing Memphis Center
Wed 10:04:53 AM 33.4619 -94.2572 71° East 455 524 39,000  Level Fort Worth Center
Wed 10:05:56 AM 33.5050 -94.1119 70° East 455 524 39,000  Level Fort Worth Center
Wed 10:06:58 AM 33.5561 -93.9675 67° East 460 529 39,000 48 Level Fort Worth Center
Wed 10:08:00 AM 33.6111 -93.8264 65° Northeast 460 529 39,100  Climbing Fort Worth Center
Wed 10:09:47 AM 33.7072 -93.5733 65° Northeast 459 528 39,000 -32 Descending Memphis Center
Wed 10:11:06 AM 33.7819 -93.3797 65° Northeast 457 526 39,000  Level Fort Worth Center
Wed 10:12:08 AM 33.8347 -93.2403 65° Northeast 457 526 39,000  Level Fort Worth Center
Wed 10:12:54 AM 33.8764 -93.1325 65° Northeast 455 524 39,000  Level Memphis Center
Wed 10:13:56 AM 33.9281 -92.9953 66° East 453 521 39,000  Level Memphis Center
Wed 10:14:58 AM 33.9797 -92.8586 65° Northeast 452 520 39,000  Level Memphis Center
Wed 10:16:00 AM 34.0303 -92.7222 66° East 451 519 39,000  Level Memphis Center
Wed 10:18:04 AM 34.1378 -92.4372 65° Northeast 448 516 39,000  Level Memphis Center
Wed 10:20:25 AM 34.2581 -92.1083 66° East 447 514 39,000 -32 Level Fort Worth Center
Wed 10:21:10 AM 34.2992 -91.9983 66° East 448 516 38,900  Descending Memphis Center
Wed 10:22:12 AM 34.3500 -91.8597 66° East 448 516 39,000 48 Climbing Memphis Center
Wed 10:23:14 AM 34.4017 -91.7158 66° East 453 521 39,000 32 Level Memphis Center
Wed 10:25:19 AM 34.5047 -91.4294 66° East 463 533 39,100  Climbing Memphis Center
Wed 10:27:00 AM 34.5774 -91.2126 66° East  Level FlightAware Approximate
Wed 10:27:23 AM 34.6192 -91.1147 66° East 463 533 39,000  Level Memphis Center
Wed 10:29:27 AM 34.7167 -90.8369 67° East 451 519 39,000  Level Memphis Center
Wed 10:30:29 AM 34.7664 -90.6992 66° East 449 517 39,000  Level Memphis Center
Wed 10:32:33 AM 34.8611 -90.4283 67° East 438 504 39,000  Level Memphis Center
Wed 10:35:39 AM 35.0136 -89.9894 70° East 438 504 39,000  Level Memphis Center
Wed 10:38:46 AM 35.1597 -89.5778 67° East 437 503 39,000  Level Memphis Center
Wed 10:39:48 AM 35.2092 -89.4394 66° East 437 503 39,000  Level Memphis Center
Wed 10:40:50 AM 35.2581 -89.3019 66° East 438 504 39,000  Level Memphis Center
Wed 10:42:54 AM 35.3658 -88.9950 68° East 445 512 39,000 32 Level Memphis Center
Wed 10:43:56 AM 35.4147 -88.8531 67° East 446 513 39,100  Climbing Memphis Center
Wed 10:44:00 AM 35.4017 -88.8650 67° East  Level FlightAware Approximate
Wed 10:44:58 AM 35.4631 -88.7106 67° East 448 516 39,000  Level Memphis Center
Wed 10:47:02 AM 35.5592 -88.4339 67° East 447 514 39,000  Level Memphis Center
Wed 10:48:04 AM 35.6161 -88.2672 67° East 446 513 39,000 -48 Level Memphis Center
Wed 10:49:06 AM 35.6592 -88.1389 68° East 446 513 38,900  Descending Memphis Center
Wed 10:50:08 AM 35.7083 -87.9950 67° East 447 514 39,000 97 Climbing Memphis Center
Wed 10:51:10 AM 35.7628 -87.8247 68° East 451 519 39,100 48 Climbing Memphis Center
Wed 10:52:13 AM 35.8133 -87.6778 67° East 458 527 39,100 -32 Level Memphis Center
Wed 10:54:17 AM 35.9103 -87.3847 68° East 459 528 39,000 -32 Descending Memphis Center
Wed 10:55:19 AM 35.9583 -87.2378 68° East 459 528 39,000  Level Memphis Center
Wed 10:56:21 AM 36.0056 -87.0914 68° East 459 528 39,000  Level Memphis Center
Wed 10:57:23 AM 36.0608 -86.9219 68° East 458 527 39,000  Level Memphis Center
Wed 10:58:25 AM 36.1081 -86.7778 68° East 458 527 39,000  Level Memphis Center
Wed 10:59:27 AM 36.1536 -86.6319 69° East 458 527 39,000  Level Memphis Center
Wed 11:01:31 AM 36.2489 -86.3389 68° East 458 527 39,000  Level Memphis Center
Wed 11:02:33 AM 36.2961 -86.1914 68° East 458 527 39,000  Level Memphis Center
Wed 11:03:35 AM 36.3514 -86.0200 68° East 458 527 39,000  Level Memphis Center
Wed 11:04:38 AM 36.3978 -85.8744 68° East 455 524 39,000  Level Memphis Center
Wed 11:05:40 AM 36.4439 -85.7272 69° East 454 522 39,000  Level Memphis Center
Wed 11:06:54 AM 36.4981 -85.5528 69° East 452 520 39,000  Level Indianapolis Center
Wed 11:07:56 AM 36.5439 -85.4083 68° East 449 517 39,000  Level Indianapolis Center
Wed 11:10:00 AM 36.6344 -85.1169 69° East 449 517 39,000  Level Indianapolis Center
Wed 11:12:04 AM 36.7322 -84.7953 69° East 449 517 39,000  Level Indianapolis Center
Wed 11:14:08 AM 36.8214 -84.5031 69° East 450 518 39,000  Level Indianapolis Center
Wed 11:15:10 AM 36.8700 -84.3428 69° East 449 517 39,000  Level Indianapolis Center
Wed 11:16:12 AM 36.9125 -84.1964 70° East 449 517 39,000  Level Indianapolis Center
Wed 11:17:13 AM 36.9572 -84.0494 69° East 449 517 39,000  Level Indianapolis Center
Wed 11:19:17 AM 37.0444 -83.7539 70° East 450 518 39,000  Level Indianapolis Center
Wed 11:20:19 AM 37.0875 -83.6053 70° East 450 518 39,000  Level Indianapolis Center
Wed 11:21:21 AM 37.1308 -83.4578 70° East 450 518 39,000  Level Indianapolis Center
Wed 11:22:23 AM 37.1808 -83.2869 70° East 450 518 39,000  Level Indianapolis Center
Wed 11:23:25 AM 37.2231 -83.1389 70° East 449 517 39,000  Level Indianapolis Center
Wed 11:24:27 AM 37.2647 -82.9903 71° East 449 517 39,000  Level Indianapolis Center
Wed 11:25:28 AM 37.3081 -82.8431 70° East 448 516 39,000  Level Indianapolis Center
Wed 11:26:30 AM 37.3500 -82.6942 70° East 448 516 39,000  Level Indianapolis Center
Wed 11:27:33 AM 37.3928 -82.5431 70° East 450 518 39,000 48 Level Indianapolis Center
Wed 11:28:34 AM 37.4358 -82.3914 70° East 455 524 39,100 49 Climbing Indianapolis Center
Wed 11:29:36 AM 37.4781 -82.2389 71° East 457 526 39,100 -49 Level Indianapolis Center
Wed 11:30:37 AM 37.5267 -82.0633 71° East 457 526 39,000 -24 Descending Indianapolis Center
Wed 11:33:43 AM 37.6489 -81.6144 83° East 452 520 39,000  Level Indianapolis Center
Wed 11:34:44 AM 37.6936 -81.4503 71° East 453 521 39,000  Level Indianapolis Center
Wed 11:35:46 AM 37.7328 -81.3017 72° East 455 524 39,000  Level Indianapolis Center
Wed 11:36:48 AM 37.7733 -81.1500 71° East 460 529 39,000  Level Indianapolis Center
Wed 11:37:50 AM 37.7889 -80.9922 83° East 463 533 39,000  Level Indianapolis Center
Wed 11:38:52 AM 37.8022 -80.8017 85° East 464 534 39,000 -314 Level Indianapolis Center
Wed 11:39:00 AM 37.7906 -80.8668 83° East  Level FlightAware Approximate
Wed 11:40:42 AM 37.8197 -80.5183 85° East 462 532 38,100  Level Washington Center
Wed 11:41:43 AM 37.8303 -80.3586 85° East 462 532 37,100 -1,033 Descending Washington Center
Wed 11:42:44 AM 37.8406 -80.2017 85° East 457 526 36,000 -1,240 Descending Washington Center
Wed 11:43:44 AM 37.8511 -80.0339 85° East 445 512 34,600 -1,271 Descending Washington Center
Wed 11:44:42 AM 37.8608 -79.8844 85° East 435 501 33,500 -533 Descending Washington Center
Wed 11:46:44 AM 37.8789 -79.5989 85° East 411 473 33,000 -125 Descending Washington Center
Wed 11:48:42 AM 37.8922 -79.3153 86° East 401 461 33,000  Level Washington Center
Wed 11:49:43 AM 37.9006 -79.1867 85° East 401 461 33,000  Level Washington Center
Wed 11:50:44 AM 37.9131 -79.0425 84° East 401 461 33,000  Level Washington Center
Wed 11:51:43 AM 37.9294 -78.9036 81° East 401 461 33,000  Level Washington Center
Wed 11:52:43 AM 37.9458 -78.7569 82° East 406 467 33,000  Level Washington Center
Wed 11:53:44 AM 37.9619 -78.6181 82° East 406 467 33,000  Level Washington Center
Wed 11:54:43 AM 37.9825 -78.4581 81° East 412 474 33,000  Level Washington Center
Wed 11:55:43 AM 37.9986 -78.3139 82° East 407 468 33,000  Level Washington Center
Wed 11:58:44 AM 38.0822 -77.9000 59° Northeast 417 480 33,000 -449 Level Washington Center
Wed 12:01:44 PM 38.2783 -77.5383 59° Northeast 412 474 30,300 -832 Descending Washington Center
Wed 12:02:42 PM 38.3492 -77.4078 55° Northeast 422 486 29,700 -1,100 Descending Washington Center
Wed 12:05:44 PM 38.5736 -76.9939 75° East 465 535 25,900 -1,289 Descending Washington Center
Wed 12:06:44 PM 38.6461 -76.8569 56° Northeast 465 535 24,500 -1,068 Descending Washington Center
Wed 12:07:00 PM 38.5915 -76.9395 59° Northeast  Level FlightAware Approximate
Wed 12:07:42 PM 38.7122 -76.7169 59° Northeast 460 529 23,800  Level Washington Center
Wed 12:08:43 PM 38.7428 -76.5658 75° East 442 509 22,000 -1,884 Descending Washington Center
Wed 12:09:43 PM 38.7750 -76.4172 74° East 431 496 20,000 -2,000 Descending Washington Center
Wed 12:10:43 PM 38.8031 -76.2708 76° East 425 489 18,000 -2,218 Descending Washington Center
Wed 12:11:00 PM 38.7884 -76.3131 75° East  Level FlightAware Approximate
Wed 12:11:42 PM 38.8350 -76.1167 75° East 410 472 15,600  Level Washington Center
Wed 12:12:42 PM 38.8647 -75.9836 74° East 398 458 15,000 -298 Descending Washington Center
Wed 12:13:43 PM 38.8922 -75.8503 75° East 392 451 15,000 -541 Level Washington Center
Wed 12:14:44 PM 38.9694 -75.7625 41° Northeast 355 409 13,900 -1,050 Descending Washington Center
Wed 12:15:43 PM 39.0528 -75.6878 35° Northeast 355 409 12,900 -952 Descending Washington Center
Wed 12:18:56 PM 39.3333 -75.6167 North 290 334 9,900 -1,067 Descending Philadelphia TRACON
Wed 12:19:56 PM 39.4000 -75.5500 38° Northeast 284 327 8,400 -1,400 Descending Philadelphia TRACON
Wed 12:20:56 PM 39.4167 -75.4500 78° East 283 326 7,100 -700 Descending Philadelphia TRACON
Wed 12:21:56 PM 39.4500 -75.3667 63° Northeast 271 312 7,000 -50 Descending Philadelphia TRACON
Wed 12:22:56 PM 39.4833 -75.3000 57° Northeast 228 262 7,000  Level Philadelphia TRACON
Wed 12:24:02 PM 39.5500 -75.2333 38° Northeast 232 267 7,000 -219 Level Philadelphia TRACON
Wed 12:26:08 PM 39.6500 -75.1333 38° Northeast 216 249 6,300 -343 Descending Philadelphia TRACON
Wed 12:26:57 PM 39.6833 -75.1000 38° Northeast 212 244 6,000 -357 Descending Philadelphia TRACON
Wed 12:28:56 PM 39.7667 -75.0000 43° Northeast 204 235 5,300 -804 Descending Philadelphia TRACON
Wed 12:29:56 PM 39.8167 -74.9833 14° North 198 228 3,600 -1,100 Descending Philadelphia TRACON
Wed 12:31:56 PM 39.9000 -75.0333 286° West 166 191 2,000 -549 Descending Philadelphia TRACON
Wed 12:32:51 PM 39.9000 -75.1000 270° West 173 199 2,000 -426 Level Philadelphia TRACON
Wed 12:34:45 PM 39.8833 -75.1833 286° West 120 138 800 -632 Descending Philadelphia TRACON
Wed 12:37:00 PM 39.8667 -75.2333 286° West  Level FlightAware Approximate
Wed 12:44:00 PM 39.8722 -75.2409 286° West  Level Estimated

Login

Don't have an account? Register now (free) for customized features, flight alerts, and more!